logo
Search for airport 
image banner adimage banner adimage banner ad
image banner ad

MMHPA - Reforma 180

Located in Cuauhtémoc, Mexico

ICAO - , IATA -

Data provided by Airmate  

General information

Coordinates: N19°25'46" W99°9'39"
Elevation is 7870 feet MSL.
Magnetic variation is 3° East
View others Airports in Distrito Federal

Operational data

Special qualification required
Current time UTC:
Current local time:
METAR: MMMX 220346Z 02008KT 12SM SCT020 BKN080 OVC220 17/10 A3026 NOSIG RMK 8/537
TAF: TAF MMMX 212242Z 2200/2300 04020KT P6SM BKN020 BKN080 OVC220 TX24/2221Z TN16/2212Z TEMPO 2200/2204 4SM SHRA OVC020CB FM220400 06005KT 4SM HZ BKN030 OVC070 TEMPO 2210/2214 3SM RA OVC030 FM221400 05015KT 5SM HZ SCT020 BKN080 BKN250 TEMPO 2220/2224 4SM TSRA OVC020CB
View NOTAMs / SUP AIP / TFR affecting this airport [VIEW]
Communications frequencies: [VIEW]

Runways:

Airport contact information

Address: Cuauhtémoc Mexico

Satellite view of MMHPA